Time;durP1;ratioP1;P1;durP2;ratioP2;P2;SDS_P1;SDS_P2;PMS_P1;PMS_P2;Temp;Humidity;BMP_temperature;BMP_pressure;BME280_temperature;BME280_humidity;BME280_pressure;Samples;Min_cycle;Max_cycle;Signal;HPM_P1;HPM_P2
2023/09/02 00:01:43;;;;;;;1999.90;999.90;;;16.00;99.90;;;;;;4972888;28;20835;-65
2023/09/02 00:04:10;;;;;;;1999.90;999.90;;;16.10;99.90;;;;;;4972182;28;20440;-66
2023/09/02 00:06:38;;;;;;;1999.90;999.90;;;16.30;99.90;;;;;;4974943;28;20479;-64
2023/09/02 00:09:05;;;;;;;1999.90;999.90;;;16.30;99.90;;;;;;4957638;28;20422;-66
2023/09/02 00:11:32;;;;;;;1999.90;999.90;;;16.30;99.90;;;;;;4955710;28;20421;-66
2023/09/02 00:13:59;;;;;;;1999.90;999.90;;;16.10;99.90;;;;;;4955446;28;20512;-66
2023/09/02 00:16:25;;;;;;;1999.90;999.90;;;15.90;99.90;;;;;;4964518;28;20819;-66
2023/09/02 00:18:52;;;;;;;1999.90;999.90;;;15.70;99.90;;;;;;4973659;28;20943;-66
2023/09/02 00:21:19;;;;;;;1999.90;999.90;;;15.70;99.90;;;;;;4972499;28;20424;-64
2023/09/02 00:23:47;;;;;;;1999.90;999.90;;;15.70;99.90;;;;;;4955411;28;20418;-66
2023/09/02 00:26:14;;;;;;;1999.90;999.90;;;15.70;99.90;;;;;;4955577;28;20421;-66
2023/09/02 00:28:41;;;;;;;1999.90;999.90;;;15.60;99.90;;;;;;4967981;28;20523;-67
2023/09/02 00:31:08;;;;;;;1999.90;999.90;;;16.00;99.90;;;;;;4966108;28;20926;-66
2023/09/02 00:33:35;;;;;;;1999.90;999.90;;;15.60;99.90;;;;;;4959616;28;20424;-66
2023/09/02 00:36:02;;;;;;;1999.90;999.90;;;15.50;99.90;;;;;;4972642;28;20446;-66
2023/09/02 00:38:28;;;;;;;1999.90;999.90;;;15.40;99.90;;;;;;4967603;28;20416;-63
2023/09/02 00:41:01;;;;;;;1999.90;999.90;;;15.30;99.90;;;;;;4960001;28;20423;-66
2023/09/02 00:43:29;;;;;;;1999.90;999.90;;;15.30;99.90;;;;;;4967556;28;20416;-64
2023/09/02 00:45:57;;;;;;;1999.90;999.90;;;15.30;99.90;;;;;;4974414;28;21084;-66
2023/09/02 00:48:24;;;;;;;1999.90;999.90;;;15.20;99.90;;;;;;4973800;28;20491;-68
2023/09/02 00:50:51;;;;;;;1999.90;999.90;;;15.30;99.90;;;;;;4959472;28;20821;-68
2023/09/02 00:53:18;;;;;;;1999.90;999.90;;;15.10;99.90;;;;;;4956144;28;20434;-68
2023/09/02 00:55:46;;;;;;;1999.90;999.90;;;15.20;99.90;;;;;;4968480;28;20422;-69
2023/09/02 00:58:14;;;;;;;1999.90;999.90;;;15.20;99.90;;;;;;4963667;28;20448;-69
2023/09/02 01:00:42;;;;;;;1999.90;999.90;;;15.10;99.90;;;;;;4973567;28;20797;-69
2023/09/02 01:03:09;;;;;;;1999.90;999.90;;;15.10;99.90;;;;;;4957661;28;20421;-68
2023/09/02 01:05:36;;;;;;;1999.90;999.90;;;15.20;99.90;;;;;;4969381;28;20418;-67
2023/09/02 01:08:04;;;;;;;1999.90;999.90;;;15.10;99.90;;;;;;4954158;28;20414;-68
2023/09/02 01:10:35;;;;;;;1999.90;999.90;;;14.90;99.90;;;;;;4966423;28;20445;-68
2023/09/02 01:13:03;;;;;;;1999.90;999.90;;;14.90;99.90;;;;;;4973397;28;21154;-67
2023/09/02 01:15:32;;;;;;;1999.90;999.90;;;14.80;99.90;;;;;;4953987;28;20418;-68
2023/09/02 01:17:58;;;;;;;1999.90;999.90;;;14.70;99.90;;;;;;4960353;28;20432;-68
2023/09/02 01:20:28;;;;;;;1999.90;999.90;;;14.80;99.90;;;;;;4972424;28;20420;-68
2023/09/02 01:23:22;;;;;;;1999.90;999.90;;;14.70;99.90;;;;;;4973396;28;20422;-69
2023/09/02 01:26:08;;;;;;;1999.90;999.90;;;14.50;99.90;;;;;;4959595;28;20406;-68
2023/09/02 01:28:40;;;;;;;1999.90;999.90;;;14.30;99.90;;;;;;4964509;28;20497;-68
2023/09/02 01:31:11;;;;;;;1999.90;999.90;;;14.30;99.90;;;;;;4972994;28;20910;-69
2023/09/02 01:33:40;;;;;;;1999.90;999.90;;;14.40;99.90;;;;;;4960924;28;20523;-69
2023/09/02 01:36:07;;;;;;;1999.90;999.90;;;14.40;99.90;;;;;;4965714;28;20831;-68
2023/09/02 01:38:35;;;;;;;1999.90;999.90;;;14.50;99.90;;;;;;4961530;28;20422;-68
2023/09/02 01:41:05;;;;;;;1999.90;999.90;;;14.20;99.90;;;;;;4953737;28;20450;-68
2023/09/02 01:43:34;;;;;;;1999.90;999.90;;;14.40;99.90;;;;;;4953140;28;20421;-67
2023/09/02 01:46:03;;;;;;;1999.90;999.90;;;14.40;99.90;;;;;;4962563;28;20447;-69
2023/09/02 01:48:31;;;;;;;1999.90;999.90;;;14.40;99.90;;;;;;4961941;28;20422;-68
2023/09/02 01:50:58;;;;;;;1999.90;999.90;;;14.40;99.90;;;;;;4953510;28;20449;-68
2023/09/02 01:53:25;;;;;;;1999.90;999.90;;;14.30;99.90;;;;;;4953339;28;20425;-68
2023/09/02 01:55:53;;;;;;;1999.90;999.90;;;14.20;99.90;;;;;;4953200;28;20426;-68
2023/09/02 01:58:20;;;;;;;1999.90;999.90;;;14.30;99.90;;;;;;4962995;28;20435;-67
2023/09/02 02:00:46;;;;;;;1999.90;999.90;;;14.30;99.90;;;;;;4972617;28;20419;-69
2023/09/02 02:03:20;;;;;;;1999.90;999.90;;;14.20;99.90;;;;;;4964454;28;20420;-68
2023/09/02 02:05:51;;;;;;;1999.90;999.90;;;14.30;99.90;;;;;;4959618;28;20441;-68
2023/09/02 02:08:29;;;;;;;1999.90;999.90;;;14.30;99.90;;;;;;4953119;28;20430;-69
2023/09/02 02:10:59;;;;;;;1999.90;999.90;;;14.30;99.90;;;;;;4969944;28;20440;-68
2023/09/02 02:13:26;;;;;;;1999.90;999.90;;;14.30;99.90;;;;;;4962275;28;20417;-68
2023/09/02 02:15:53;;;;;;;1999.90;999.90;;;14.40;99.90;;;;;;4952885;28;20902;-69
2023/09/02 02:18:21;;;;;;;1999.90;999.90;;;14.20;99.90;;;;;;4952969;28;20422;-67
2023/09/02 02:21:00;;;;;;;1999.90;999.90;;;14.00;99.90;;;;;;4955047;28;20436;-68
2023/09/02 02:23:27;;;;;;;1999.90;999.90;;;13.90;99.90;;;;;;4971661;28;20904;-66
2023/09/02 02:25:58;;;;;;;1999.90;999.90;;;13.90;99.90;;;;;;4964091;28;20424;-69
2023/09/02 02:28:25;;;;;;;1999.90;999.90;;;13.90;99.90;;;;;;4962463;28;20425;-68
2023/09/02 02:30:52;;;;;;;1999.90;999.90;;;13.80;99.90;;;;;;4952717;28;20441;-66
2023/09/02 02:33:18;;;;;;;1999.90;999.90;;;13.80;99.90;;;;;;4958847;28;20431;-67
2023/09/02 02:35:46;;;;;;;1999.90;999.90;;;13.70;99.90;;;;;;4972353;28;20426;-69
2023/09/02 02:38:13;;;;;;;1999.90;999.90;;;13.70;99.90;;;;;;4955995;28;20425;-68
2023/09/02 02:40:40;;;;;;;1999.90;999.90;;;13.80;99.90;;;;;;4964899;28;20428;-68
2023/09/02 02:43:07;;;;;;;1999.90;999.90;;;13.90;99.90;;;;;;4971641;28;20416;-67
2023/09/02 02:45:34;;;;;;;1999.90;999.90;;;14.00;99.90;;;;;;4969992;28;20440;-67
2023/09/02 02:48:00;;;;;;;1999.90;999.90;;;14.00;99.90;;;;;;4971353;28;20424;-68
2023/09/02 02:50:27;;;;;;;1999.90;999.90;;;14.00;99.90;;;;;;4954012;28;20545;-66
2023/09/02 02:52:55;;;;;;;1999.90;999.90;;;14.10;99.90;;;;;;4952607;28;20422;-69
2023/09/02 02:55:22;;;;;;;1999.90;999.90;;;14.20;99.90;;;;;;4957363;28;20451;-69
2023/09/02 02:57:49;;;;;;;1999.90;999.90;;;14.20;99.90;;;;;;4971204;28;20422;-68
2023/09/02 03:00:16;;;;;;;1999.90;999.90;;;14.30;99.90;;;;;;4955629;28;20425;-69
2023/09/02 03:02:42;;;;;;;1999.90;999.90;;;14.40;99.90;;;;;;4952241;28;20425;-68
2023/09/02 03:05:09;;;;;;;1999.90;999.90;;;14.40;99.90;;;;;;4952372;28;20425;-66
2023/09/02 03:07:36;;;;;;;1999.90;999.90;;;14.30;99.90;;;;;;4958674;28;20444;-69
2023/09/02 03:10:05;;;;;;;1999.90;999.90;;;14.40;99.90;;;;;;4970611;28;20455;-68
2023/09/02 03:12:32;;;;;;;1999.90;999.90;;;14.60;99.90;;;;;;4961509;28;20421;-68
2023/09/02 03:14:58;;;;;;;1999.90;999.90;;;14.50;99.90;;;;;;4951975;28;20430;-67
2023/09/02 03:17:25;;;;;;;1999.90;999.90;;;14.60;99.90;;;;;;4952384;28;20430;-69
2023/09/02 03:19:52;;;;;;;1999.90;999.90;;;14.50;99.90;;;;;;4961627;28;20435;-68
2023/09/02 03:22:19;;;;;;;1999.90;999.90;;;14.50;99.90;;;;;;4970984;28;20816;-68
2023/09/02 03:24:45;;;;;;;1999.90;999.90;;;14.40;99.90;;;;;;4955581;28;20415;-66
2023/09/02 03:27:13;;;;;;;1999.90;999.90;;;14.40;99.90;;;;;;4964189;28;20433;-67
2023/09/02 03:29:40;;;;;;;1999.90;999.90;;;14.40;99.90;;;;;;4958548;28;20815;-68
2023/09/02 03:32:07;;;;;;;1999.90;999.90;;;14.60;99.90;;;;;;4971442;28;20443;-69
2023/09/02 03:34:33;;;;;;;1999.90;999.90;;;14.60;99.90;;;;;;4953058;28;20421;-68
2023/09/02 03:37:00;;;;;;;1999.90;999.90;;;14.40;99.90;;;;;;4965120;28;20440;-68
2023/09/02 03:39:28;;;;;;;1999.90;999.90;;;14.40;99.90;;;;;;4969970;28;20419;-66
2023/09/02 03:41:54;;;;;;;1999.90;999.90;;;14.50;99.90;;;;;;4952031;28;20425;-68
2023/09/02 03:44:22;;;;;;;1999.90;999.90;;;14.70;99.90;;;;;;4951625;28;21025;-68
2023/09/02 03:46:51;;;;;;;1999.90;999.90;;;14.80;99.90;;;;;;4961229;28;20443;-68
2023/09/02 03:49:17;;;;;;;1999.90;999.90;;;14.90;99.90;;;;;;4971149;28;20547;-69
2023/09/02 03:51:44;;;;;;;1999.90;999.90;;;14.90;99.90;;;;;;4951922;28;20437;-66
2023/09/02 03:54:11;;;;;;;1999.90;999.90;;;15.00;99.90;;;;;;4951763;28;20425;-68
2023/09/02 03:56:39;;;;;;;1999.90;999.90;;;15.00;99.90;;;;;;4951688;28;20418;-68
2023/09/02 03:59:06;;;;;;;1999.90;999.90;;;15.10;99.90;;;;;;4960362;28;20951;-68
2023/09/02 04:01:34;;;;;;;1999.90;999.90;;;15.00;99.90;;;;;;4969123;28;20416;-68
2023/09/02 04:04:01;;;;;;;1999.90;999.90;;;15.00;99.90;;;;;;4951457;28;20424;-66
2023/09/02 04:06:28;;;;;;;1999.90;999.90;;;15.00;99.90;;;;;;4951773;28;20444;-69
2023/09/02 04:08:55;;;;;;;1999.90;999.90;;;15.00;99.90;;;;;;4953003;28;20426;-69
2023/09/02 04:11:23;;;;;;;1999.90;999.90;;;15.10;99.90;;;;;;4965478;28;20533;-69
2023/09/02 04:13:49;;;;;;;1999.90;999.90;;;15.20;99.90;;;;;;4966642;28;20420;-68
2023/09/02 04:16:16;;;;;;;1999.90;999.90;;;15.30;99.90;;;;;;4959373;28;20429;-68
2023/09/02 04:18:44;;;;;;;1999.90;999.90;;;15.30;99.90;;;;;;4954917;28;20429;-68
2023/09/02 04:21:11;;;;;;;1999.90;999.90;;;15.10;99.90;;;;;;4963648;28;20424;-68
2023/09/02 04:23:38;;;;;;;1999.90;999.90;;;15.00;99.90;;;;;;4972752;28;20436;-68
2023/09/02 04:26:05;;;;;;;1999.90;999.90;;;15.10;99.90;;;;;;4974113;28;20432;-68
2023/09/02 04:28:32;;;;;;;1999.90;999.90;;;15.20;99.90;;;;;;4972811;28;20420;-69
2023/09/02 04:30:59;;;;;;;1999.90;999.90;;;15.40;99.90;;;;;;4954823;28;20438;-66
2023/09/02 04:33:26;;;;;;;1999.90;999.90;;;15.40;99.90;;;;;;4968295;28;20474;-69
2023/09/02 04:35:54;;;;;;;1999.90;999.90;;;15.50;99.90;;;;;;4969894;28;20914;-68
2023/09/02 04:38:21;;;;;;;1999.90;999.90;;;15.60;99.90;;;;;;4954578;28;20452;-67
2023/09/02 04:40:48;;;;;;;1999.90;999.90;;;15.60;99.90;;;;;;4954473;28;20414;-68
2023/09/02 04:43:15;;;;;;;1999.90;999.90;;;15.60;99.90;;;;;;4966851;28;20439;-69
2023/09/02 04:45:42;;;;;;;1999.90;999.90;;;15.60;99.90;;;;;;4969110;28;20448;-67
2023/09/02 04:48:10;;;;;;;1999.90;999.90;;;15.60;99.90;;;;;;4971830;28;20434;-68
2023/09/02 04:50:38;;;;;;;1999.90;999.90;;;15.70;99.90;;;;;;4980339;28;20454;-66
2023/09/02 04:53:07;;;;;;;1999.90;999.90;;;15.70;99.90;;;;;;4975257;28;20451;-69
2023/09/02 04:55:34;;;;;;;1999.90;999.90;;;15.40;99.90;;;;;;4973110;28;20439;-66
2023/09/02 04:58:01;;;;;;;1999.90;999.90;;;15.30;99.90;;;;;;4985326;28;20465;-68
2023/09/02 05:00:28;;;;;;;1999.90;999.90;;;15.40;99.90;;;;;;4982655;28;20457;-66
2023/09/02 05:02:55;;;;;;;1999.90;999.90;;;15.60;99.90;;;;;;4979257;28;20447;-68
2023/09/02 05:05:23;;;;;;;1999.90;999.90;;;15.60;99.90;;;;;;4974968;28;20943;-68
2023/09/02 05:07:50;;;;;;;1999.90;999.90;;;15.30;99.90;;;;;;4974862;28;21406;-68
2023/09/02 05:10:19;;;;;;;1999.90;999.90;;;15.40;99.90;;;;;;4974257;28;20440;-69
2023/09/02 05:12:45;;;;;;;1999.90;999.90;;;15.40;99.90;;;;;;4978318;28;20517;-69
2023/09/02 05:15:12;;;;;;;1999.90;999.90;;;15.50;99.90;;;;;;4967252;28;20435;-68
2023/09/02 05:17:39;;;;;;;1999.90;999.90;;;15.70;99.90;;;;;;4973509;28;20445;-67
2023/09/02 05:20:07;;;;;;;1999.90;999.90;;;15.60;99.90;;;;;;4973890;28;20436;-68
2023/09/02 05:22:35;;;;;;;1999.90;999.90;;;15.60;99.90;;;;;;4981785;28;20432;-68
2023/09/02 05:25:02;;;;;;;1999.90;999.90;;;15.50;99.90;;;;;;4976202;28;20448;-69
2023/09/02 05:27:31;;;;;;;1999.90;999.90;;;15.40;99.90;;;;;;4969095;28;20436;-68
2023/09/02 05:29:58;;;;;;;1999.90;999.90;;;15.30;99.90;;;;;;4970437;28;20525;-67
2023/09/02 05:32:24;;;;;;;1999.90;999.90;;;15.40;99.90;;;;;;4977248;28;20439;-68
2023/09/02 05:34:51;;;;;;;1999.90;999.90;;;15.40;99.90;;;;;;4969115;28;20443;-66
2023/09/02 05:37:18;;;;;;;1999.90;999.90;;;15.60;99.90;;;;;;4973453;28;20808;-68
2023/09/02 05:39:45;;;;;;;1999.90;999.90;;;15.80;99.90;;;;;;4971913;28;20975;-69
2023/09/02 05:42:11;;;;;;;1999.90;999.90;;;16.00;99.90;;;;;;4975857;28;20430;-68
2023/09/02 05:44:41;;;;;;;1999.90;999.90;;;16.10;99.90;;;;;;4984926;28;20952;-68
2023/09/02 05:47:08;;;;;;;1999.90;999.90;;;16.30;99.90;;;;;;4979207;28;20443;-68
2023/09/02 05:49:36;;;;;;;1999.90;999.90;;;16.40;99.90;;;;;;4968759;28;20452;-69
2023/09/02 05:52:05;;;;;;;1999.90;999.90;;;16.60;99.90;;;;;;4975634;28;20439;-63
2023/09/02 05:54:31;;;;;;;1999.90;999.90;;;16.90;99.90;;;;;;4989323;28;20446;-65
2023/09/02 05:56:58;;;;;;;1999.90;999.90;;;17.20;99.90;;;;;;4988717;28;20451;-68
2023/09/02 05:59:25;;;;;;;1999.90;999.90;;;17.40;99.90;;;;;;4985680;28;20432;-66
2023/09/02 06:01:55;;;;;;;1999.90;999.90;;;17.60;99.90;;;;;;4974049;28;20448;-66
2023/09/02 06:04:22;;;;;;;1999.90;999.90;;;17.60;99.90;;;;;;4979347;28;20440;-64
2023/09/02 06:06:49;;;;;;;1999.90;999.90;;;17.60;99.90;;;;;;4981201;28;20431;-66
2023/09/02 06:09:15;;;;;;;1999.90;999.90;;;17.60;99.90;;;;;;4973485;28;20891;-66
2023/09/02 06:11:42;;;;;;;1999.90;999.90;;;17.70;99.90;;;;;;4973975;28;20441;-66
2023/09/02 06:14:09;;;;;;;1999.90;999.90;;;17.80;99.90;;;;;;4973035;28;20444;-66
2023/09/02 06:16:36;;;;;;;1999.90;999.90;;;17.90;99.90;;;;;;4970304;28;20435;-66
2023/09/02 06:19:04;;;;;;;1999.90;999.90;;;18.00;99.90;;;;;;4973035;28;20442;-66
2023/09/02 06:21:31;;;;;;;1999.90;999.90;;;18.10;99.90;;;;;;4964768;28;20417;-66
2023/09/02 06:23:57;;;;;;;1999.90;999.90;;;18.10;99.90;;;;;;4951932;28;20418;-66
2023/09/02 06:26:25;;;;;;;1999.90;999.90;;;18.10;99.90;;;;;;4958975;28;20451;-66
2023/09/02 06:28:52;;;;;;;1999.90;999.90;;;18.20;99.90;;;;;;4977676;28;20874;-66
2023/09/02 06:31:19;;;;;;;1999.90;999.90;;;18.10;99.90;;;;;;4971824;28;20997;-66
2023/09/02 06:33:45;;;;;;;1999.90;999.90;;;18.10;99.90;;;;;;4969444;28;20443;-65
2023/09/02 06:36:16;;;;;;;1999.90;999.90;;;18.20;99.90;;;;;;4970041;28;20442;-66
2023/09/02 06:38:43;;;;;;;1999.90;999.90;;;18.20;99.90;;;;;;4968977;28;20931;-66
2023/09/02 06:41:11;;;;;;;1999.90;999.90;;;18.30;99.90;;;;;;4973671;28;20588;-65
2023/09/02 06:43:38;;;;;;;1999.90;999.90;;;18.30;99.90;;;;;;4977673;28;20448;-64
2023/09/02 06:46:09;;;;;;;1999.90;999.90;;;18.30;99.90;;;;;;4968765;28;20439;-66
2023/09/02 06:48:36;;;;;;;1999.90;999.90;;;18.20;99.90;;;;;;4969136;28;20433;-65
2023/09/02 06:51:03;;;;;;;1999.90;999.90;;;18.20;99.90;;;;;;4964875;28;20431;-65
2023/09/02 06:53:31;;;;;;;1999.90;999.90;;;18.30;99.90;;;;;;4967147;28;20435;-65
2023/09/02 06:55:58;;;;;;;1999.90;999.90;;;18.40;99.90;;;;;;4966195;28;20444;-65
2023/09/02 06:58:25;;;;;;;1999.90;999.90;;;18.40;99.90;;;;;;4971674;28;20467;-64
2023/09/02 07:00:51;;;;;;;1999.90;999.90;;;18.60;99.90;;;;;;4961527;28;20798;-66
2023/09/02 07:03:18;;;;;;;1999.90;999.90;;;18.70;99.90;;;;;;4963220;28;20418;-66
2023/09/02 07:05:45;;;;;;;1999.90;999.90;;;18.80;99.90;;;;;;4965352;28;20448;-63
2023/09/02 07:08:11;;;;;;;1999.90;999.90;;;19.00;99.90;;;;;;4964383;28;20845;-65
2023/09/02 07:10:40;;;;;;;1999.90;999.90;;;19.10;99.90;;;;;;4952016;28;20426;-66
2023/09/02 07:13:06;;;;;;;1999.90;999.90;;;19.00;99.90;;;;;;4963701;28;20471;-64
2023/09/02 07:15:34;;;;;;;1999.90;999.90;;;18.90;99.90;;;;;;4971061;28;20424;-66
2023/09/02 07:18:02;;;;;;;1999.90;999.90;;;19.10;99.90;;;;;;4969380;28;20440;-66
2023/09/02 07:20:28;;;;;;;1999.90;999.90;;;18.90;99.90;;;;;;4969541;28;20490;-65
2023/09/02 07:22:55;;;;;;;1999.90;999.90;;;19.20;99.90;;;;;;4969061;28;20420;-67
2023/09/02 07:25:22;;;;;;;1999.90;999.90;;;19.40;99.90;;;;;;4960918;28;20416;-66
2023/09/02 07:27:50;;;;;;;1999.90;999.90;;;19.50;99.90;;;;;;4969820;28;20428;-67
2023/09/02 07:30:17;;;;;;;1999.90;999.90;;;19.50;99.90;;;;;;4970591;28;20436;-66
2023/09/02 07:32:43;;;;;;;1999.90;999.90;;;19.50;99.90;;;;;;4971843;28;20509;-66
2023/09/02 07:35:10;;;;;;;1999.90;999.90;;;19.50;99.90;;;;;;4952694;28;20437;-66
2023/09/02 07:37:37;;;;;;;1999.90;999.90;;;20.00;99.90;;;;;;4952079;28;20422;-66
2023/09/02 07:40:06;;;;;;;1999.90;999.90;;;19.80;99.90;;;;;;4956580;28;20439;-66
2023/09/02 07:42:32;;;;;;;1999.90;999.90;;;19.70;99.90;;;;;;4971401;28;20440;-66
2023/09/02 07:45:00;;;;;;;1999.90;999.90;;;19.80;99.90;;;;;;4956347;28;20417;-66
2023/09/02 07:47:27;;;;;;;1999.90;999.90;;;19.90;99.90;;;;;;4956039;28;20773;-66
2023/09/02 07:49:55;;;;;;;1999.90;999.90;;;20.00;99.90;;;;;;4955954;28;20428;-66
2023/09/02 07:52:23;;;;;;;1999.90;999.90;;;20.00;99.90;;;;;;4960329;28;20519;-66
2023/09/02 07:54:50;;;;;;;1999.90;999.90;;;20.20;99.90;;;;;;4974840;28;20486;-66
2023/09/02 07:57:17;;;;;;;1999.90;999.90;;;20.10;99.90;;;;;;4962924;28;20428;-66
2023/09/02 07:59:44;;;;;;;1999.90;999.90;;;20.00;99.90;;;;;;4955902;28;20905;-66
2023/09/02 08:02:12;;;;;;;1999.90;999.90;;;20.20;99.90;;;;;;4957586;28;20421;-67
2023/09/02 08:04:38;;;;;;;1999.90;999.90;;;20.40;99.90;;;;;;4974633;28;20420;-67
2023/09/02 08:07:05;;;;;;;1999.90;999.90;;;20.50;99.90;;;;;;4974915;28;20435;-66
2023/09/02 08:09:32;;;;;;;1999.90;999.90;;;20.70;99.90;;;;;;4960265;28;20421;-69
2023/09/02 08:11:58;;;;;;;1999.90;999.90;;;20.80;99.90;;;;;;4954987;28;20437;-66
2023/09/02 08:14:25;;;;;;;1999.90;999.90;;;21.00;99.90;;;;;;4961158;28;20447;-66
2023/09/02 08:16:52;;;;;;;1999.90;999.90;;;21.00;99.90;;;;;;4973159;28;20420;-69
2023/09/02 08:19:20;;;;;;;1999.90;999.90;;;21.30;99.90;;;;;;4955006;28;20417;-67
2023/09/02 08:21:47;;;;;;;1999.90;999.90;;;21.20;99.90;;;;;;4955177;28;20791;-69
2023/09/02 08:24:13;;;;;;;1999.90;999.90;;;21.30;99.90;;;;;;4954903;28;20426;-68
2023/09/02 08:26:42;;;;;;;1999.90;999.90;;;21.30;99.90;;;;;;4962376;28;20803;-70
2023/09/02 08:29:09;;;;;;;1999.90;999.90;;;21.60;99.90;;;;;;4973940;28;20412;-70
2023/09/02 08:31:35;;;;;;;1999.90;999.90;;;21.70;99.90;;;;;;4966012;28;20427;-69
2023/09/02 08:34:02;;;;;;;1999.90;999.90;;;21.80;99.90;;;;;;4966644;28;20447;-70
2023/09/02 08:36:30;;;;;;;1999.90;999.90;;;21.90;99.90;;;;;;4972275;28;20440;-67
2023/09/02 08:38:57;;;;;;;1999.90;999.90;;;22.10;99.90;;;;;;4979342;28;20432;-68
2023/09/02 08:41:26;;;;;;;1999.90;999.90;;;21.80;99.90;;;;;;5003094;23;20441;-64
2023/09/02 08:43:55;;;;;;;1999.90;999.90;;;21.80;99.90;;;;;;4987998;28;20434;-64
2023/09/02 08:46:25;;;;;;;1999.90;999.90;;;22.00;99.90;;;;;;4988894;28;20415;-65
2023/09/02 08:48:53;;;;;;;1999.90;999.90;;;22.20;99.90;;;;;;4990671;28;20925;-64
2023/09/02 08:51:21;;;;;;;1999.90;999.90;;;22.50;99.90;;;;;;4991140;28;20426;-64
2023/09/02 08:53:49;;;;;;;1999.90;999.90;;;22.30;99.90;;;;;;4992137;28;20442;-64
2023/09/02 08:56:16;;;;;;;1999.90;999.90;;;22.30;99.90;;;;;;4983350;28;20763;-64
2023/09/02 08:58:44;;;;;;;1999.90;999.90;;;22.50;99.90;;;;;;4991666;28;20434;-65
2023/09/02 09:01:14;;;;;;;1999.90;999.90;;;22.30;99.90;;;;;;4992492;28;20422;-65
2023/09/02 09:03:44;;;;;;;1999.90;999.90;;;22.30;99.90;;;;;;4992509;28;20936;-64
2023/09/02 09:06:12;;;;;;;1999.90;999.90;;;22.60;99.90;;;;;;4992677;28;20425;-64
2023/09/02 09:08:40;;;;;;;1999.90;999.90;;;22.90;99.90;;;;;;4992030;28;20791;-64
2023/09/02 09:11:10;;;;;;;1999.90;999.90;;;23.00;99.90;;;;;;4989590;28;20447;-64
2023/09/02 09:13:43;;;;;;;1999.90;999.90;;;22.70;99.90;;;;;;4992079;28;20438;-64
2023/09/02 09:16:14;;;;;;;1999.90;999.90;;;22.60;99.90;;;;;;4992602;28;20894;-64
2023/09/02 09:18:41;;;;;;;1999.90;999.90;;;22.70;99.90;;;;;;4992739;28;20422;-65
2023/09/02 09:21:08;;;;;;;1999.90;999.90;;;22.70;99.90;;;;;;4990984;28;20460;-64
2023/09/02 09:23:36;;;;;;;1999.90;999.90;;;22.80;99.90;;;;;;4992160;28;20910;-64
2023/09/02 09:26:03;;;;;;;1999.90;999.90;;;22.80;99.90;;;;;;4992255;28;20481;-64
2023/09/02 09:28:50;;;;;;;1999.90;999.90;;;22.90;99.90;;;;;;4992638;28;20425;-64
2023/09/02 09:31:17;;;;;;;1999.90;999.90;;;22.80;99.90;;;;;;4984473;28;20435;-64
2023/09/02 09:33:50;;;;;;;1999.90;999.90;;;22.70;99.90;;;;;;4991097;28;20521;-64
2023/09/02 09:36:17;;;;;;;1999.90;999.90;;;22.80;99.90;;;;;;4992148;28;20945;-64
2023/09/02 09:38:43;;;;;;;1999.90;999.90;;;23.00;99.90;;;;;;4992198;28;20898;-65
2023/09/02 09:41:10;;;;;;;1999.90;999.90;;;23.20;99.90;;;;;;4991924;28;20414;-64
2023/09/02 09:43:38;;;;;;;1999.90;999.90;;;23.20;99.90;;;;;;4991855;28;20414;-64
2023/09/02 09:46:05;;;;;;;1999.90;999.90;;;23.20;99.90;;;;;;4988575;28;20938;-64
2023/09/02 09:48:32;;;;;;;1999.90;999.90;;;23.20;99.90;;;;;;4990239;28;20806;-64
2023/09/02 09:50:58;;;;;;;1999.90;999.90;;;23.40;99.90;;;;;;4991651;28;20787;-64
2023/09/02 09:53:32;;;;;;;1999.90;999.90;;;23.60;99.90;;;;;;4991808;28;20434;-64
2023/09/02 09:56:03;;;;;;;1999.90;999.90;;;23.80;99.90;;;;;;4991669;28;21113;-64
2023/09/02 09:58:30;;;;;;;1999.90;999.90;;;23.80;99.90;;;;;;4984224;28;20503;-64
2023/09/02 10:00:58;;;;;;;1999.90;999.90;;;23.80;99.90;;;;;;4982786;28;20418;-64
2023/09/02 10:03:30;;;;;;;1999.90;999.90;;;23.50;99.90;;;;;;4991282;28;20425;-63
2023/09/02 10:05:58;;;;;;;1999.90;999.90;;;23.20;99.90;;;;;;4986712;28;20427;-65
2023/09/02 10:08:25;;;;;;;1999.90;999.90;;;23.20;99.90;;;;;;4990176;28;20434;-64
2023/09/02 10:10:52;;;;;;;1999.90;999.90;;;23.20;99.90;;;;;;4980179;28;20961;-64
2023/09/02 10:13:20;;;;;;;1999.90;999.90;;;23.10;99.90;;;;;;4981633;28;20430;-65
2023/09/02 10:15:49;;;;;;;1999.90;999.90;;;23.20;99.90;;;;;;4982558;28;20424;-64
2023/09/02 10:18:19;;;;;;;1999.90;999.90;;;23.40;99.90;;;;;;4991313;28;20437;-65
2023/09/02 10:20:47;;;;;;;1999.90;999.90;;;23.40;99.90;;;;;;4984951;28;20430;-64
2023/09/02 10:23:14;;;;;;;1999.90;999.90;;;23.60;99.90;;;;;;4987579;28;20430;-64
2023/09/02 10:25:49;;;;;;;1999.90;999.90;;;23.80;99.90;;;;;;4986577;28;20428;-66
2023/09/02 10:28:20;;;;;;;1999.90;999.90;;;23.70;99.90;;;;;;4989999;28;20410;-67
2023/09/02 10:30:48;;;;;;;1999.90;999.90;;;23.50;99.90;;;;;;4985194;28;20442;-64
2023/09/02 10:33:23;;;;;;;1999.90;999.90;;;23.40;99.90;;;;;;4986772;28;20430;-64
2023/09/02 10:35:59;;;;;;;1999.90;999.90;;;23.40;99.90;;;;;;4984545;28;20806;-64
2023/09/02 10:38:29;;;;;;;1999.90;999.90;;;23.10;99.90;;;;;;4983386;28;20554;-65
2023/09/02 10:41:02;;;;;;;1999.90;999.90;;;22.80;99.90;;;;;;4984713;28;20504;-65
2023/09/02 10:43:29;;;;;;;1999.90;999.90;;;23.20;99.90;;;;;;4986143;28;20443;-64
2023/09/02 10:45:56;;;;;;;1999.90;999.90;;;23.40;99.90;;;;;;4985582;28;20826;-64
2023/09/02 10:48:24;;;;;;;1999.90;999.90;;;23.00;99.90;;;;;;4988352;28;20438;-66
2023/09/02 10:50:51;;;;;;;1999.90;999.90;;;22.80;99.90;;;;;;4987717;28;20439;-64
2023/09/02 10:53:18;;;;;;;1999.90;999.90;;;23.20;99.90;;;;;;4985670;28;20434;-63
2023/09/02 10:56:02;;;;;;;1999.90;999.90;;;23.30;99.90;;;;;;4985443;28;20453;-64
2023/09/02 10:58:46;;;;;;;1999.90;999.90;;;23.10;99.90;;;;;;4980684;28;20913;-64
2023/09/02 11:01:13;;;;;;;1999.90;999.90;;;23.20;99.90;;;;;;4987028;28;20436;-64
2023/09/02 11:03:45;;;;;;;1999.90;999.90;;;23.60;99.90;;;;;;4988454;28;20434;-64
2023/09/02 11:06:15;;;;;;;1999.90;999.90;;;23.60;99.90;;;;;;4986039;28;20438;-64
2023/09/02 11:08:44;;;;;;;1999.90;999.90;;;23.60;99.90;;;;;;4987409;28;20434;-64
2023/09/02 11:11:11;;;;;;;1999.90;999.90;;;23.20;99.90;;;;;;4980413;28;20438;-63
2023/09/02 11:14:11;;;;;;;1999.90;999.90;;;22.90;99.90;;;;;;4988011;28;20799;-63
2023/09/02 11:16:40;;;;;;;1999.90;999.90;;;22.60;99.90;;;;;;4982009;28;20445;-64
2023/09/02 11:19:09;;;;;;;1999.90;999.90;;;22.20;99.90;;;;;;4986059;28;20933;-64
2023/09/02 11:21:40;;;;;;;1999.90;999.90;;;21.90;99.90;;;;;;4986675;28;20445;-64
2023/09/02 11:24:17;;;;;;;1999.90;999.90;;;21.90;99.90;;;;;;4986823;28;20464;-63
2023/09/02 11:26:54;;;;;;;1999.90;999.90;;;21.60;99.90;;;;;;4985158;28;20434;-63
2023/09/02 11:29:25;;;;;;;1999.90;999.90;;;21.40;99.90;;;;;;4986284;28;20451;-64
2023/09/02 11:31:58;;;;;;;1999.90;999.90;;;21.40;99.90;;;;;;4983343;28;20437;-63
2023/09/02 11:34:27;;;;;;;1999.90;999.90;;;21.40;99.90;;;;;;4986787;28;20445;-63
2023/09/02 11:36:54;;;;;;;1999.90;999.90;;;21.80;99.90;;;;;;4984480;28;20437;-64
2023/09/02 11:39:25;;;;;;;1999.90;999.90;;;21.90;99.90;;;;;;4987685;28;20440;-64
2023/09/02 11:42:06;;;;;;;1999.90;999.90;;;22.30;99.90;;;;;;4985416;28;20436;-64
2023/09/02 11:44:33;;;;;;;1999.90;999.90;;;22.40;99.90;;;;;;4987801;28;20437;-64
2023/09/02 11:47:01;;;;;;;1999.90;999.90;;;22.30;99.90;;;;;;4985474;28;20884;-65
2023/09/02 11:49:29;;;;;;;1999.90;999.90;;;22.40;99.90;;;;;;4987561;28;20442;-63
2023/09/02 11:51:56;;;;;;;1999.90;999.90;;;22.40;99.90;;;;;;4989974;28;20449;-64
2023/09/02 11:54:23;;;;;;;1999.90;999.90;;;22.60;99.90;;;;;;4986586;28;20440;-65
2023/09/02 11:56:57;;;;;;;1999.90;999.90;;;22.50;99.90;;;;;;4986695;28;20426;-64
2023/09/02 11:59:24;;;;;;;1999.90;999.90;;;22.60;99.90;;;;;;4989846;28;20418;-64
2023/09/02 12:02:08;;;;;;;1999.90;999.90;;;22.70;99.90;;;;;;4988780;28;20433;-64
2023/09/02 12:04:37;;;;;;;1999.90;999.90;;;22.80;99.90;;;;;;4989230;28;20437;-64